sensor_id;sensor_type;location;lat;lon;timestamp;temperature;humidity
5429;DHT22;2737;52.386;9.980;2024-01-10T00:00:10;-7.00;99.90
5429;DHT22;2737;52.386;9.980;2024-01-10T00:02:39;-7.10;99.90
5429;DHT22;2737;52.386;9.980;2024-01-10T00:05:06;-7.10;99.90
5429;DHT22;2737;52.386;9.980;2024-01-10T00:07:33;-7.10;99.90
5429;DHT22;2737;52.386;9.980;2024-01-10T00:10:02;-7.10;99.90
5429;DHT22;2737;52.386;9.980;2024-01-10T00:12:29;-7.10;99.90
5429;DHT22;2737;52.386;9.980;2024-01-10T00:15:00;-7.10;99.90
5429;DHT22;2737;52.386;9.980;2024-01-10T00:17:27;-7.10;99.90
5429;DHT22;2737;52.386;9.980;2024-01-10T00:19:56;-7.20;99.90
5429;DHT22;2737;52.386;9.980;2024-01-10T00:22:23;-7.20;99.90
5429;DHT22;2737;52.386;9.980;2024-01-10T00:24:50;-7.20;99.90
5429;DHT22;2737;52.386;9.980;2024-01-10T00:27:17;-7.30;99.90
5429;DHT22;2737;52.386;9.980;2024-01-10T00:29:44;-7.30;99.90
5429;DHT22;2737;52.386;9.980;2024-01-10T00:32:11;-7.30;99.90
5429;DHT22;2737;52.386;9.980;2024-01-10T00:34:38;-7.30;99.90
5429;DHT22;2737;52.386;9.980;2024-01-10T00:37:06;-7.30;99.90
5429;DHT22;2737;52.386;9.980;2024-01-10T00:39:33;-7.30;99.90
5429;DHT22;2737;52.386;9.980;2024-01-10T00:42:00;-7.30;99.90
5429;DHT22;2737;52.386;9.980;2024-01-10T00:44:27;-7.30;99.90
5429;DHT22;2737;52.386;9.980;2024-01-10T00:46:54;-7.30;99.90
5429;DHT22;2737;52.386;9.980;2024-01-10T00:49:21;-7.30;99.90
5429;DHT22;2737;52.386;9.980;2024-01-10T00:51:48;-7.30;99.90
5429;DHT22;2737;52.386;9.980;2024-01-10T00:54:17;-7.30;99.90
5429;DHT22;2737;52.386;9.980;2024-01-10T00:56:44;-7.30;99.90
5429;DHT22;2737;52.386;9.980;2024-01-10T00:59:11;-7.20;99.90
5429;DHT22;2737;52.386;9.980;2024-01-10T01:01:38;-7.30;99.90
5429;DHT22;2737;52.386;9.980;2024-01-10T01:04:05;-7.30;99.90
5429;DHT22;2737;52.386;9.980;2024-01-10T01:06:32;-7.30;99.90
5429;DHT22;2737;52.386;9.980;2024-01-10T01:08:59;-7.30;99.90
5429;DHT22;2737;52.386;9.980;2024-01-10T01:11:28;-7.30;99.90
5429;DHT22;2737;52.386;9.980;2024-01-10T01:13:55;-7.30;99.90
5429;DHT22;2737;52.386;9.980;2024-01-10T01:16:22;-7.30;99.90
5429;DHT22;2737;52.386;9.980;2024-01-10T01:18:49;-7.30;99.90
5429;DHT22;2737;52.386;9.980;2024-01-10T01:21:16;-7.40;99.90
5429;DHT22;2737;52.386;9.980;2024-01-10T01:23:43;-7.40;99.90
5429;DHT22;2737;52.386;9.980;2024-01-10T01:26:10;-7.40;99.90
5429;DHT22;2737;52.386;9.980;2024-01-10T01:28:39;-7.40;99.90
5429;DHT22;2737;52.386;9.980;2024-01-10T01:31:06;-7.40;99.90
5429;DHT22;2737;52.386;9.980;2024-01-10T01:33:33;-7.40;99.90
5429;DHT22;2737;52.386;9.980;2024-01-10T01:36:00;-7.40;99.90
5429;DHT22;2737;52.386;9.980;2024-01-10T01:38:28;-7.40;99.90
5429;DHT22;2737;52.386;9.980;2024-01-10T01:40:55;-7.50;99.90
5429;DHT22;2737;52.386;9.980;2024-01-10T01:43:23;-7.50;99.90
5429;DHT22;2737;52.386;9.980;2024-01-10T01:45:53;-7.50;99.90
5429;DHT22;2737;52.386;9.980;2024-01-10T01:48:21;-7.60;99.90
5429;DHT22;2737;52.386;9.980;2024-01-10T01:50:52;-7.60;99.90
5429;DHT22;2737;52.386;9.980;2024-01-10T01:53:20;-7.60;99.90
5429;DHT22;2737;52.386;9.980;2024-01-10T01:55:48;-7.60;99.90
5429;DHT22;2737;52.386;9.980;2024-01-10T01:58:16;-7.60;99.90
5429;DHT22;2737;52.386;9.980;2024-01-10T02:00:44;-7.60;99.90
5429;DHT22;2737;52.386;9.980;2024-01-10T02:03:12;-7.60;99.90
5429;DHT22;2737;52.386;9.980;2024-01-10T02:05:40;-7.60;99.90
5429;DHT22;2737;52.386;9.980;2024-01-10T02:08:07;-7.60;99.90
5429;DHT22;2737;52.386;9.980;2024-01-10T02:10:35;-7.60;99.90
5429;DHT22;2737;52.386;9.980;2024-01-10T02:13:02;-7.60;99.90
5429;DHT22;2737;52.386;9.980;2024-01-10T02:15:29;-7.60;99.90
5429;DHT22;2737;52.386;9.980;2024-01-10T02:17:56;-7.60;99.90
5429;DHT22;2737;52.386;9.980;2024-01-10T02:20:25;-7.60;99.90
5429;DHT22;2737;52.386;9.980;2024-01-10T02:22:52;-7.60;99.90
5429;DHT22;2737;52.386;9.980;2024-01-10T02:25:20;-7.60;99.90
5429;DHT22;2737;52.386;9.980;2024-01-10T02:27:48;-7.60;99.90
5429;DHT22;2737;52.386;9.980;2024-01-10T02:30:15;-7.60;99.90
5429;DHT22;2737;52.386;9.980;2024-01-10T02:32:42;-7.60;99.90
5429;DHT22;2737;52.386;9.980;2024-01-10T02:35:09;-7.70;99.90
5429;DHT22;2737;52.386;9.980;2024-01-10T02:37:36;-7.70;99.90
5429;DHT22;2737;52.386;9.980;2024-01-10T02:40:04;-7.80;99.90
5429;DHT22;2737;52.386;9.980;2024-01-10T02:42:34;-7.80;99.90
5429;DHT22;2737;52.386;9.980;2024-01-10T02:45:02;-7.80;99.90
5429;DHT22;2737;52.386;9.980;2024-01-10T02:47:29;-7.80;99.90
5429;DHT22;2737;52.386;9.980;2024-01-10T02:49:56;-7.80;99.90
5429;DHT22;2737;52.386;9.980;2024-01-10T02:52:23;-7.80;99.90
5429;DHT22;2737;52.386;9.980;2024-01-10T02:54:50;-7.80;99.90
5429;DHT22;2737;52.386;9.980;2024-01-10T02:57:17;-7.80;99.90
5429;DHT22;2737;52.386;9.980;2024-01-10T02:59:45;-7.80;99.90
5429;DHT22;2737;52.386;9.980;2024-01-10T03:02:12;-7.90;99.90
5429;DHT22;2737;52.386;9.980;2024-01-10T03:04:39;-7.80;99.90
5429;DHT22;2737;52.386;9.980;2024-01-10T03:07:06;-7.80;99.90
5429;DHT22;2737;52.386;9.980;2024-01-10T03:09:33;-7.80;99.90
5429;DHT22;2737;52.386;9.980;2024-01-10T03:12:00;-7.80;99.90
5429;DHT22;2737;52.386;9.980;2024-01-10T03:14:27;-7.80;99.90
5429;DHT22;2737;52.386;9.980;2024-01-10T03:16:55;-7.80;99.90
5429;DHT22;2737;52.386;9.980;2024-01-10T03:19:22;-7.80;99.90
5429;DHT22;2737;52.386;9.980;2024-01-10T03:21:49;-7.80;99.90
5429;DHT22;2737;52.386;9.980;2024-01-10T03:24:16;-7.80;99.90
5429;DHT22;2737;52.386;9.980;2024-01-10T03:26:43;-7.80;99.90
5429;DHT22;2737;52.386;9.980;2024-01-10T03:29:11;-7.70;99.90
5429;DHT22;2737;52.386;9.980;2024-01-10T03:31:38;-7.70;99.90
5429;DHT22;2737;52.386;9.980;2024-01-10T03:34:06;-7.70;99.90
5429;DHT22;2737;52.386;9.980;2024-01-10T03:36:33;-7.70;99.90
5429;DHT22;2737;52.386;9.980;2024-01-10T03:39:00;-7.60;99.90
5429;DHT22;2737;52.386;9.980;2024-01-10T03:41:27;-7.60;99.90
5429;DHT22;2737;52.386;9.980;2024-01-10T03:43:54;-7.60;99.90
5429;DHT22;2737;52.386;9.980;2024-01-10T03:46:21;-7.60;99.90
5429;DHT22;2737;52.386;9.980;2024-01-10T03:48:48;-7.60;99.90
5429;DHT22;2737;52.386;9.980;2024-01-10T03:51:18;-7.60;99.90
5429;DHT22;2737;52.386;9.980;2024-01-10T03:53:45;-7.60;99.90
5429;DHT22;2737;52.386;9.980;2024-01-10T03:56:14;-7.60;99.90
5429;DHT22;2737;52.386;9.980;2024-01-10T03:58:41;-7.60;99.90
5429;DHT22;2737;52.386;9.980;2024-01-10T04:01:08;-7.60;99.90
5429;DHT22;2737;52.386;9.980;2024-01-10T04:03:35;-7.60;99.90
5429;DHT22;2737;52.386;9.980;2024-01-10T04:06:03;-7.60;99.90
5429;DHT22;2737;52.386;9.980;2024-01-10T04:08:32;-7.60;99.90
5429;DHT22;2737;52.386;9.980;2024-01-10T04:11:00;-7.60;99.90
5429;DHT22;2737;52.386;9.980;2024-01-10T04:13:28;-7.70;99.90
5429;DHT22;2737;52.386;9.980;2024-01-10T04:15:55;-7.60;99.90
5429;DHT22;2737;52.386;9.980;2024-01-10T04:18:23;-7.70;99.90
5429;DHT22;2737;52.386;9.980;2024-01-10T04:20:50;-7.70;99.90
5429;DHT22;2737;52.386;9.980;2024-01-10T04:23:17;-7.70;99.90
5429;DHT22;2737;52.386;9.980;2024-01-10T04:25:45;-7.80;99.90
5429;DHT22;2737;52.386;9.980;2024-01-10T04:28:12;-7.80;99.90
5429;DHT22;2737;52.386;9.980;2024-01-10T04:30:39;-7.80;99.90
5429;DHT22;2737;52.386;9.980;2024-01-10T04:33:06;-7.80;99.90
5429;DHT22;2737;52.386;9.980;2024-01-10T04:35:33;-7.80;99.90
5429;DHT22;2737;52.386;9.980;2024-01-10T04:38:00;-7.90;99.90
5429;DHT22;2737;52.386;9.980;2024-01-10T04:40:28;-7.90;99.90
5429;DHT22;2737;52.386;9.980;2024-01-10T04:42:56;-7.90;99.90
5429;DHT22;2737;52.386;9.980;2024-01-10T04:45:23;-7.90;99.90
5429;DHT22;2737;52.386;9.980;2024-01-10T04:47:50;-7.90;99.90
5429;DHT22;2737;52.386;9.980;2024-01-10T04:50:17;-8.00;99.90
5429;DHT22;2737;52.386;9.980;2024-01-10T04:52:44;-8.00;99.90
5429;DHT22;2737;52.386;9.980;2024-01-10T04:55:11;-8.00;99.90
5429;DHT22;2737;52.386;9.980;2024-01-10T04:57:38;-8.00;99.90
5429;DHT22;2737;52.386;9.980;2024-01-10T05:00:08;-8.00;99.90
5429;DHT22;2737;52.386;9.980;2024-01-10T05:02:35;-8.00;99.90
5429;DHT22;2737;52.386;9.980;2024-01-10T05:05:03;-8.10;99.90
5429;DHT22;2737;52.386;9.980;2024-01-10T05:07:30;-8.10;99.90
5429;DHT22;2737;52.386;9.980;2024-01-10T05:09:57;-8.10;99.90
5429;DHT22;2737;52.386;9.980;2024-01-10T05:12:25;-8.10;99.90
5429;DHT22;2737;52.386;9.980;2024-01-10T05:14:52;-8.10;99.90
5429;DHT22;2737;52.386;9.980;2024-01-10T05:17:20;-8.10;99.90
5429;DHT22;2737;52.386;9.980;2024-01-10T05:19:47;-8.10;99.90
5429;DHT22;2737;52.386;9.980;2024-01-10T05:22:14;-8.10;99.90
5429;DHT22;2737;52.386;9.980;2024-01-10T05:24:42;-8.10;99.90
5429;DHT22;2737;52.386;9.980;2024-01-10T05:27:09;-8.10;99.90
5429;DHT22;2737;52.386;9.980;2024-01-10T05:29:36;-8.10;99.90
5429;DHT22;2737;52.386;9.980;2024-01-10T05:32:04;-8.10;99.90
5429;DHT22;2737;52.386;9.980;2024-01-10T05:34:33;-8.10;99.90
5429;DHT22;2737;52.386;9.980;2024-01-10T05:37:00;-8.10;99.90
5429;DHT22;2737;52.386;9.980;2024-01-10T05:39:27;-8.10;99.90
5429;DHT22;2737;52.386;9.980;2024-01-10T05:41:54;-8.20;99.90
5429;DHT22;2737;52.386;9.980;2024-01-10T05:44:21;-8.10;99.90
5429;DHT22;2737;52.386;9.980;2024-01-10T05:46:48;-8.20;99.90
5429;DHT22;2737;52.386;9.980;2024-01-10T05:49:15;-8.20;99.90
5429;DHT22;2737;52.386;9.980;2024-01-10T05:51:43;-8.20;99.90
5429;DHT22;2737;52.386;9.980;2024-01-10T05:54:10;-8.20;99.90
5429;DHT22;2737;52.386;9.980;2024-01-10T05:56:37;-8.20;99.90
5429;DHT22;2737;52.386;9.980;2024-01-10T05:59:04;-8.20;99.90
5429;DHT22;2737;52.386;9.980;2024-01-10T06:01:31;-8.20;99.90
5429;DHT22;2737;52.386;9.980;2024-01-10T06:03:58;-8.20;99.90
5429;DHT22;2737;52.386;9.980;2024-01-10T06:06:26;-8.20;99.90
5429;DHT22;2737;52.386;9.980;2024-01-10T06:08:54;-8.20;99.90
5429;DHT22;2737;52.386;9.980;2024-01-10T06:11:22;-8.30;99.90
5429;DHT22;2737;52.386;9.980;2024-01-10T06:13:49;-8.30;99.90
5429;DHT22;2737;52.386;9.980;2024-01-10T06:16:16;-8.30;99.90
5429;DHT22;2737;52.386;9.980;2024-01-10T06:18:43;-8.30;99.90
5429;DHT22;2737;52.386;9.980;2024-01-10T06:21:10;-8.30;99.90
5429;DHT22;2737;52.386;9.980;2024-01-10T06:23:37;-8.40;99.90
5429;DHT22;2737;52.386;9.980;2024-01-10T06:26:05;-8.40;99.90
5429;DHT22;2737;52.386;9.980;2024-01-10T06:28:32;-8.40;99.90
5429;DHT22;2737;52.386;9.980;2024-01-10T06:30:59;-8.40;99.90
5429;DHT22;2737;52.386;9.980;2024-01-10T06:33:26;-8.40;99.90
5429;DHT22;2737;52.386;9.980;2024-01-10T06:35:53;-8.40;99.90
5429;DHT22;2737;52.386;9.980;2024-01-10T06:38:21;-8.30;99.90
5429;DHT22;2737;52.386;9.980;2024-01-10T06:40:48;-8.40;99.90
5429;DHT22;2737;52.386;9.980;2024-01-10T06:43:17;-8.40;99.90
5429;DHT22;2737;52.386;9.980;2024-01-10T06:45:44;-8.40;99.90
5429;DHT22;2737;52.386;9.980;2024-01-10T06:48:12;-8.40;99.90
5429;DHT22;2737;52.386;9.980;2024-01-10T06:50:39;-8.40;99.90
5429;DHT22;2737;52.386;9.980;2024-01-10T06:53:06;-8.40;99.90
5429;DHT22;2737;52.386;9.980;2024-01-10T06:55:33;-8.40;99.90
5429;DHT22;2737;52.386;9.980;2024-01-10T06:58:00;-8.30;99.90
5429;DHT22;2737;52.386;9.980;2024-01-10T07:00:30;-8.40;99.90
5429;DHT22;2737;52.386;9.980;2024-01-10T07:02:57;-8.40;99.90
5429;DHT22;2737;52.386;9.980;2024-01-10T07:05:27;-8.40;99.90
5429;DHT22;2737;52.386;9.980;2024-01-10T07:07:54;-8.40;99.90
5429;DHT22;2737;52.386;9.980;2024-01-10T07:10:21;-8.40;99.90
5429;DHT22;2737;52.386;9.980;2024-01-10T07:12:51;-8.40;99.90
5429;DHT22;2737;52.386;9.980;2024-01-10T07:15:18;-8.40;99.90
5429;DHT22;2737;52.386;9.980;2024-01-10T07:17:47;-8.40;99.90
5429;DHT22;2737;52.386;9.980;2024-01-10T07:20:14;-8.40;99.90
5429;DHT22;2737;52.386;9.980;2024-01-10T07:22:41;-8.40;99.90
5429;DHT22;2737;52.386;9.980;2024-01-10T07:25:09;-8.40;99.90
5429;DHT22;2737;52.386;9.980;2024-01-10T07:27:39;-8.40;99.90
5429;DHT22;2737;52.386;9.980;2024-01-10T07:30:07;-8.40;99.90
5429;DHT22;2737;52.386;9.980;2024-01-10T07:32:39;-8.40;99.90
5429;DHT22;2737;52.386;9.980;2024-01-10T07:35:09;-8.40;99.90
5429;DHT22;2737;52.386;9.980;2024-01-10T07:37:36;-8.40;99.90
5429;DHT22;2737;52.386;9.980;2024-01-10T07:40:05;-8.40;99.90
5429;DHT22;2737;52.386;9.980;2024-01-10T07:42:32;-8.40;99.90
5429;DHT22;2737;52.386;9.980;2024-01-10T07:45:00;-8.40;99.90
5429;DHT22;2737;52.386;9.980;2024-01-10T07:47:29;-8.40;99.90
5429;DHT22;2737;52.386;9.980;2024-01-10T07:49:56;-8.40;99.90
5429;DHT22;2737;52.386;9.980;2024-01-10T07:52:25;-8.50;99.90
5429;DHT22;2737;52.386;9.980;2024-01-10T07:54:52;-8.50;99.90
5429;DHT22;2737;52.386;9.980;2024-01-10T07:57:19;-8.50;99.90
5429;DHT22;2737;52.386;9.980;2024-01-10T07:59:46;-8.50;99.90
5429;DHT22;2737;52.386;9.980;2024-01-10T08:02:13;-8.50;99.90
5429;DHT22;2737;52.386;9.980;2024-01-10T08:04:40;-8.50;99.90
5429;DHT22;2737;52.386;9.980;2024-01-10T08:07:07;-8.50;99.90
5429;DHT22;2737;52.386;9.980;2024-01-10T08:09:36;-8.50;99.90
5429;DHT22;2737;52.386;9.980;2024-01-10T08:12:04;-8.50;99.90
5429;DHT22;2737;52.386;9.980;2024-01-10T08:14:31;-8.40;99.90
5429;DHT22;2737;52.386;9.980;2024-01-10T08:16:58;-8.40;99.90
5429;DHT22;2737;52.386;9.980;2024-01-10T08:19:26;-8.40;99.90
5429;DHT22;2737;52.386;9.980;2024-01-10T08:21:53;-8.40;99.90
5429;DHT22;2737;52.386;9.980;2024-01-10T08:24:20;-8.30;99.90
5429;DHT22;2737;52.386;9.980;2024-01-10T08:26:49;-8.30;99.90
5429;DHT22;2737;52.386;9.980;2024-01-10T08:29:17;-8.30;99.90
5429;DHT22;2737;52.386;9.980;2024-01-10T08:31:44;-8.30;99.90
5429;DHT22;2737;52.386;9.980;2024-01-10T08:34:11;-8.20;99.90
5429;DHT22;2737;52.386;9.980;2024-01-10T08:36:38;-8.20;99.90
5429;DHT22;2737;52.386;9.980;2024-01-10T08:39:05;-8.20;99.90
5429;DHT22;2737;52.386;9.980;2024-01-10T08:41:32;-8.20;99.90
5429;DHT22;2737;52.386;9.980;2024-01-10T08:44:04;-8.10;99.90
5429;DHT22;2737;52.386;9.980;2024-01-10T08:46:31;-8.20;99.90
5429;DHT22;2737;52.386;9.980;2024-01-10T08:48:58;-8.10;99.90
5429;DHT22;2737;52.386;9.980;2024-01-10T08:51:25;-8.10;99.90
5429;DHT22;2737;52.386;9.980;2024-01-10T08:53:52;-8.10;99.90
5429;DHT22;2737;52.386;9.980;2024-01-10T08:56:19;-8.00;99.90
5429;DHT22;2737;52.386;9.980;2024-01-10T08:58:46;-8.00;99.90
5429;DHT22;2737;52.386;9.980;2024-01-10T09:01:15;-7.90;99.90
5429;DHT22;2737;52.386;9.980;2024-01-10T09:03:42;-7.80;99.90
5429;DHT22;2737;52.386;9.980;2024-01-10T09:06:09;-7.80;99.90
5429;DHT22;2737;52.386;9.980;2024-01-10T09:08:36;-7.80;99.90
5429;DHT22;2737;52.386;9.980;2024-01-10T09:11:03;-7.70;99.90
5429;DHT22;2737;52.386;9.980;2024-01-10T09:13:31;-7.70;99.90
5429;DHT22;2737;52.386;9.980;2024-01-10T09:15:58;-7.70;99.90
5429;DHT22;2737;52.386;9.980;2024-01-10T09:18:27;-7.70;99.90
5429;DHT22;2737;52.386;9.980;2024-01-10T09:20:54;-7.60;99.90
5429;DHT22;2737;52.386;9.980;2024-01-10T09:23:21;-7.60;99.90
5429;DHT22;2737;52.386;9.980;2024-01-10T09:25:48;-7.60;99.90
5429;DHT22;2737;52.386;9.980;2024-01-10T09:28:16;-7.50;99.90
5429;DHT22;2737;52.386;9.980;2024-01-10T09:30:43;-7.50;99.90
5429;DHT22;2737;52.386;9.980;2024-01-10T09:33:10;-7.40;99.90
5429;DHT22;2737;52.386;9.980;2024-01-10T09:35:39;-7.40;99.90
5429;DHT22;2737;52.386;9.980;2024-01-10T09:38:07;-7.30;99.90
5429;DHT22;2737;52.386;9.980;2024-01-10T09:40:34;-7.30;99.90
5429;DHT22;2737;52.386;9.980;2024-01-10T09:43:01;-7.20;99.90
5429;DHT22;2737;52.386;9.980;2024-01-10T09:45:31;-7.20;99.90
5429;DHT22;2737;52.386;9.980;2024-01-10T09:48:01;-7.20;99.90
5429;DHT22;2737;52.386;9.980;2024-01-10T09:50:29;-7.20;99.90
5429;DHT22;2737;52.386;9.980;2024-01-10T09:53:06;-7.10;99.90
5429;DHT22;2737;52.386;9.980;2024-01-10T09:55:35;-7.10;99.90
5429;DHT22;2737;52.386;9.980;2024-01-10T09:58:04;-7.10;99.90
5429;DHT22;2737;52.386;9.980;2024-01-10T10:00:32;-7.00;99.90
5429;DHT22;2737;52.386;9.980;2024-01-10T10:03:02;-6.90;99.90
5429;DHT22;2737;52.386;9.980;2024-01-10T10:05:31;-6.80;99.90
5429;DHT22;2737;52.386;9.980;2024-01-10T10:08:01;-6.80;99.90
5429;DHT22;2737;52.386;9.980;2024-01-10T10:10:28;-6.80;99.90
5429;DHT22;2737;52.386;9.980;2024-01-10T10:12:55;-6.70;99.90
5429;DHT22;2737;52.386;9.980;2024-01-10T10:15:23;-6.70;99.90
5429;DHT22;2737;52.386;9.980;2024-01-10T10:17:52;-6.70;99.90
5429;DHT22;2737;52.386;9.980;2024-01-10T10:20:21;-6.60;99.90
5429;DHT22;2737;52.386;9.980;2024-01-10T10:23:02;-6.60;99.90
5429;DHT22;2737;52.386;9.980;2024-01-10T10:25:31;-6.50;99.90
5429;DHT22;2737;52.386;9.980;2024-01-10T10:27:58;-6.50;99.90
5429;DHT22;2737;52.386;9.980;2024-01-10T10:30:26;-6.50;99.90
5429;DHT22;2737;52.386;9.980;2024-01-10T10:32:54;-6.50;99.90
5429;DHT22;2737;52.386;9.980;2024-01-10T10:35:21;-6.40;99.90
5429;DHT22;2737;52.386;9.980;2024-01-10T10:37:49;-6.40;99.90
5429;DHT22;2737;52.386;9.980;2024-01-10T10:40:18;-6.40;99.90
5429;DHT22;2737;52.386;9.980;2024-01-10T10:42:46;-6.30;99.90
5429;DHT22;2737;52.386;9.980;2024-01-10T10:45:16;-6.20;99.90
5429;DHT22;2737;52.386;9.980;2024-01-10T10:47:44;-6.20;99.90
5429;DHT22;2737;52.386;9.980;2024-01-10T10:50:23;-6.10;99.90
5429;DHT22;2737;52.386;9.980;2024-01-10T10:52:50;-6.10;99.90
5429;DHT22;2737;52.386;9.980;2024-01-10T10:55:19;-6.00;99.90
5429;DHT22;2737;52.386;9.980;2024-01-10T10:57:48;-5.90;99.90
5429;DHT22;2737;52.386;9.980;2024-01-10T11:00:18;-5.90;99.90
5429;DHT22;2737;52.386;9.980;2024-01-10T11:02:46;-5.90;99.90
5429;DHT22;2737;52.386;9.980;2024-01-10T11:05:13;-5.80;99.90
5429;DHT22;2737;52.386;9.980;2024-01-10T11:07:42;-5.80;99.90
5429;DHT22;2737;52.386;9.980;2024-01-10T11:10:13;-5.80;99.90
5429;DHT22;2737;52.386;9.980;2024-01-10T11:12:56;-5.70;99.90
5429;DHT22;2737;52.386;9.980;2024-01-10T11:15:59;-5.70;99.90
5429;DHT22;2737;52.386;9.980;2024-01-10T11:18:49;-5.70;99.90
5429;DHT22;2737;52.386;9.980;2024-01-10T11:21:22;-5.70;99.90
5429;DHT22;2737;52.386;9.980;2024-01-10T11:23:54;-5.60;99.90
5429;DHT22;2737;52.386;9.980;2024-01-10T11:26:22;-5.50;99.90
5429;DHT22;2737;52.386;9.980;2024-01-10T11:28:51;-5.40;99.90
5429;DHT22;2737;52.386;9.980;2024-01-10T11:31:28;-5.40;99.90
5429;DHT22;2737;52.386;9.980;2024-01-10T11:33:56;-5.30;99.90
5429;DHT22;2737;52.386;9.980;2024-01-10T11:36:23;-5.20;99.90
5429;DHT22;2737;52.386;9.980;2024-01-10T11:38:55;-5.20;99.90
5429;DHT22;2737;52.386;9.980;2024-01-10T11:41:26;-5.20;99.90
5429;DHT22;2737;52.386;9.980;2024-01-10T11:44:26;-5.10;99.90
5429;DHT22;2737;52.386;9.980;2024-01-10T11:46:55;-5.10;99.90
5429;DHT22;2737;52.386;9.980;2024-01-10T11:49:23;-5.00;99.90
5429;DHT22;2737;52.386;9.980;2024-01-10T11:51:52;-5.00;99.90
5429;DHT22;2737;52.386;9.980;2024-01-10T11:54:35;-5.00;99.90
5429;DHT22;2737;52.386;9.980;2024-01-10T11:57:02;-4.90;99.90
5429;DHT22;2737;52.386;9.980;2024-01-10T11:59:31;-4.90;99.90
5429;DHT22;2737;52.386;9.980;2024-01-10T12:01:59;-4.80;99.90
5429;DHT22;2737;52.386;9.980;2024-01-10T12:04:26;-4.80;99.90
5429;DHT22;2737;52.386;9.980;2024-01-10T12:06:55;-4.70;99.90
5429;DHT22;2737;52.386;9.980;2024-01-10T12:09:23;-4.70;99.90
5429;DHT22;2737;52.386;9.980;2024-01-10T12:11:50;-4.70;99.90
5429;DHT22;2737;52.386;9.980;2024-01-10T12:14:18;-4.60;99.90
5429;DHT22;2737;52.386;9.980;2024-01-10T12:16:47;-4.60;99.90
5429;DHT22;2737;52.386;9.980;2024-01-10T12:19:14;-4.50;99.90
5429;DHT22;2737;52.386;9.980;2024-01-10T12:21:41;-4.50;99.90
5429;DHT22;2737;52.386;9.980;2024-01-10T12:24:10;-4.50;99.90
5429;DHT22;2737;52.386;9.980;2024-01-10T12:26:43;-4.40;99.90
5429;DHT22;2737;52.386;9.980;2024-01-10T12:29:11;-4.40;99.90
5429;DHT22;2737;52.386;9.980;2024-01-10T12:31:39;-4.40;99.90
5429;DHT22;2737;52.386;9.980;2024-01-10T12:34:08;-4.30;99.90
5429;DHT22;2737;52.386;9.980;2024-01-10T12:36:36;-4.30;99.90
5429;DHT22;2737;52.386;9.980;2024-01-10T12:39:03;-4.30;99.90
5429;DHT22;2737;52.386;9.980;2024-01-10T12:41:32;-4.20;99.90
5429;DHT22;2737;52.386;9.980;2024-01-10T12:44:00;-4.20;99.90
5429;DHT22;2737;52.386;9.980;2024-01-10T12:46:29;-4.20;99.90
5429;DHT22;2737;52.386;9.980;2024-01-10T12:49:01;-4.20;99.90
5429;DHT22;2737;52.386;9.980;2024-01-10T12:51:30;-4.20;99.90
5429;DHT22;2737;52.386;9.980;2024-01-10T12:53:58;-4.10;99.90
5429;DHT22;2737;52.386;9.980;2024-01-10T12:56:25;-4.10;99.90
5429;DHT22;2737;52.386;9.980;2024-01-10T12:58:53;-4.10;99.90
5429;DHT22;2737;52.386;9.980;2024-01-10T13:01:21;-4.00;99.90
5429;DHT22;2737;52.386;9.980;2024-01-10T13:03:49;-4.00;99.90
5429;DHT22;2737;52.386;9.980;2024-01-10T13:06:16;-4.00;99.90
5429;DHT22;2737;52.386;9.980;2024-01-10T13:08:46;-3.90;99.90
5429;DHT22;2737;52.386;9.980;2024-01-10T13:11:13;-3.90;99.90
5429;DHT22;2737;52.386;9.980;2024-01-10T13:13:40;-3.90;99.90
5429;DHT22;2737;52.386;9.980;2024-01-10T13:16:09;-3.90;99.90
5429;DHT22;2737;52.386;9.980;2024-01-10T13:18:38;-3.90;99.90
5429;DHT22;2737;52.386;9.980;2024-01-10T13:21:05;-3.80;99.90
5429;DHT22;2737;52.386;9.980;2024-01-10T13:23:33;-3.80;99.90
5429;DHT22;2737;52.386;9.980;2024-01-10T13:26:03;-3.80;99.90
5429;DHT22;2737;52.386;9.980;2024-01-10T13:28:30;-3.70;99.90
5429;DHT22;2737;52.386;9.980;2024-01-10T13:30:57;-3.80;99.90
5429;DHT22;2737;52.386;9.980;2024-01-10T13:33:25;-3.70;99.90
5429;DHT22;2737;52.386;9.980;2024-01-10T13:35:52;-3.70;99.90
5429;DHT22;2737;52.386;9.980;2024-01-10T13:38:19;-3.70;99.90
5429;DHT22;2737;52.386;9.980;2024-01-10T13:40:47;-3.70;99.90
5429;DHT22;2737;52.386;9.980;2024-01-10T13:43:15;-3.70;99.90
5429;DHT22;2737;52.386;9.980;2024-01-10T13:45:42;-3.70;99.90
5429;DHT22;2737;52.386;9.980;2024-01-10T13:48:09;-3.60;99.90
5429;DHT22;2737;52.386;9.980;2024-01-10T13:50:37;-3.60;99.90
5429;DHT22;2737;52.386;9.980;2024-01-10T13:53:04;-3.50;99.90
5429;DHT22;2737;52.386;9.980;2024-01-10T13:55:31;-3.50;99.90
5429;DHT22;2737;52.386;9.980;2024-01-10T13:57:58;-3.50;99.90
5429;DHT22;2737;52.386;9.980;2024-01-10T14:00:26;-3.50;99.90
5429;DHT22;2737;52.386;9.980;2024-01-10T14:02:53;-3.50;99.90
5429;DHT22;2737;52.386;9.980;2024-01-10T14:05:28;-3.50;99.90
5429;DHT22;2737;52.386;9.980;2024-01-10T14:07:55;-3.50;99.90
5429;DHT22;2737;52.386;9.980;2024-01-10T14:10:22;-3.50;99.90
5429;DHT22;2737;52.386;9.980;2024-01-10T14:12:49;-3.50;99.90
5429;DHT22;2737;52.386;9.980;2024-01-10T14:15:17;-3.50;99.90
5429;DHT22;2737;52.386;9.980;2024-01-10T14:17:45;-3.40;99.90
5429;DHT22;2737;52.386;9.980;2024-01-10T14:20:12;-3.50;99.90
5429;DHT22;2737;52.386;9.980;2024-01-10T14:22:39;-3.50;99.90
5429;DHT22;2737;52.386;9.980;2024-01-10T14:25:08;-3.40;99.90
5429;DHT22;2737;52.386;9.980;2024-01-10T14:27:36;-3.50;99.90
5429;DHT22;2737;52.386;9.980;2024-01-10T14:30:06;-3.50;99.90
5429;DHT22;2737;52.386;9.980;2024-01-10T14:32:35;-3.50;99.90
5429;DHT22;2737;52.386;9.980;2024-01-10T14:35:04;-3.50;99.90
5429;DHT22;2737;52.386;9.980;2024-01-10T14:37:32;-3.50;99.90
5429;DHT22;2737;52.386;9.980;2024-01-10T14:40:02;-3.50;99.90
5429;DHT22;2737;52.386;9.980;2024-01-10T14:42:29;-3.50;99.90
5429;DHT22;2737;52.386;9.980;2024-01-10T14:44:58;-3.50;99.90
5429;DHT22;2737;52.386;9.980;2024-01-10T14:47:25;-3.50;99.90
5429;DHT22;2737;52.386;9.980;2024-01-10T14:49:53;-3.50;99.90
5429;DHT22;2737;52.386;9.980;2024-01-10T14:52:22;-3.50;99.90
5429;DHT22;2737;52.386;9.980;2024-01-10T14:54:50;-3.50;99.90
5429;DHT22;2737;52.386;9.980;2024-01-10T14:57:17;-3.50;99.90
5429;DHT22;2737;52.386;9.980;2024-01-10T14:59:44;-3.50;99.90
5429;DHT22;2737;52.386;9.980;2024-01-10T15:02:11;-3.50;99.90
5429;DHT22;2737;52.386;9.980;2024-01-10T15:04:38;-3.60;99.90
5429;DHT22;2737;52.386;9.980;2024-01-10T15:07:05;-3.60;99.90
5429;DHT22;2737;52.386;9.980;2024-01-10T15:09:34;-3.60;99.90
5429;DHT22;2737;52.386;9.980;2024-01-10T15:12:03;-3.60;99.90
5429;DHT22;2737;52.386;9.980;2024-01-10T15:14:33;-3.60;99.90
5429;DHT22;2737;52.386;9.980;2024-01-10T15:17:00;-3.70;99.90
5429;DHT22;2737;52.386;9.980;2024-01-10T15:19:29;-3.70;99.90
5429;DHT22;2737;52.386;9.980;2024-01-10T15:21:57;-3.70;99.90
5429;DHT22;2737;52.386;9.980;2024-01-10T15:24:25;-3.80;99.90
5429;DHT22;2737;52.386;9.980;2024-01-10T15:26:53;-3.80;99.90
5429;DHT22;2737;52.386;9.980;2024-01-10T15:29:21;-3.80;99.90
5429;DHT22;2737;52.386;9.980;2024-01-10T15:31:48;-3.80;99.90
5429;DHT22;2737;52.386;9.980;2024-01-10T15:34:15;-3.70;99.90
5429;DHT22;2737;52.386;9.980;2024-01-10T15:36:43;-3.70;99.90
5429;DHT22;2737;52.386;9.980;2024-01-10T15:39:10;-3.70;99.90
5429;DHT22;2737;52.386;9.980;2024-01-10T15:41:39;-3.80;99.90
5429;DHT22;2737;52.386;9.980;2024-01-10T15:44:08;-3.80;99.90
5429;DHT22;2737;52.386;9.980;2024-01-10T15:46:35;-3.90;99.90
5429;DHT22;2737;52.386;9.980;2024-01-10T15:49:03;-3.90;99.90
5429;DHT22;2737;52.386;9.980;2024-01-10T15:51:30;-3.90;99.90
5429;DHT22;2737;52.386;9.980;2024-01-10T15:53:57;-3.90;99.90
5429;DHT22;2737;52.386;9.980;2024-01-10T15:56:25;-4.00;99.90
5429;DHT22;2737;52.386;9.980;2024-01-10T15:58:52;-4.00;99.90
5429;DHT22;2737;52.386;9.980;2024-01-10T16:01:25;-4.00;99.90
5429;DHT22;2737;52.386;9.980;2024-01-10T16:03:53;-4.00;99.90
5429;DHT22;2737;52.386;9.980;2024-01-10T16:06:21;-4.10;99.90